CheckWX is a tool to help pilots better visualize weather data.  It is not intended as a substitute for an official pre-flight weather briefing.

06:08:42 UTC

KMLU TAF
Monroe Regional Airport
Monroe, Louisiana, USA
KMLU 260521Z 2606/2706 VRB03KT P6SM BKN250 FM261600 19006KT P6SM BKN250

Jun-26@
06:00 UTC

Jun-26 @ 06:00 UTC

Jun-26@
16:00 UTC

Jun-26 @ 16:00 UTC

KMLU 260521Z 2606/2706 VRB03KT P6SM BKN250
Wind
  • Variable at 3 KTS
Cloud Levels
  • Broken at 25,000' AGL

Jun-26@
16:00 UTC

Jun-26 @ 16:00 UTC

Jun-27@
06:00 UTC

Jun-27 @ 06:00 UTC

FM261600 19006KT P6SM BKN250

From

From Standard forecast or significant change

Wind
  • 190° at 6 KTS
Cloud Levels
  • Broken at 25,000' AGL